Time;durP1;ratioP1;P1;durP2;ratioP2;P2;SDS_P1;SDS_P2;PMS_P1;PMS_P2;Temp;Humidity;BMP_temperature;BMP_pressure;BME280_temperature;BME280_humidity;BME280_pressure;Samples;Min_cycle;Max_cycle;Signal;HPM_P1;HPM_P2
2023/03/14 07:35:03;;;;;;;0.80;0.80;;;9.10;99.90;12.10;99009.00;;;;6391113;22;20259;-71
2023/03/14 07:37:30;;;;;;;0.50;0.50;;;9.20;99.90;11.70;99029.00;;;;6284027;22;1377562;-71
2023/03/14 07:39:58;;;;;;;0.60;0.60;;;9.10;99.90;11.60;99030.00;;;;6312815;22;20159;-72
2023/03/14 07:42:24;;;;;;;0.70;0.70;;;9.00;99.90;11.60;99039.00;;;;6312883;22;20690;-71
2023/03/14 07:44:55;;;;;;;0.60;0.60;;;9.00;99.90;11.50;99048.00;;;;6312912;22;20186;-72
2023/03/14 07:47:29;;;;;;;0.60;0.60;;;9.00;99.90;11.70;99034.00;;;;6338833;22;20179;-72
2023/03/14 07:49:58;;;;;;;0.60;0.60;;;9.00;99.90;11.60;99072.00;;;;6313480;22;20160;-72
2023/03/14 07:52:30;;;;;;;0.60;0.60;;;9.00;99.90;11.40;99080.00;;;;6312942;22;20162;-71
2023/03/14 07:54:58;;;;;;;0.60;0.60;;;9.00;99.90;11.60;99084.00;;;;6338948;22;20136;-72
2023/03/14 07:57:24;;;;;;;0.60;0.60;;;9.00;99.90;11.40;99101.00;;;;6340397;22;20151;-71
2023/03/14 07:59:53;;;;;;;4.43;4.03;;;9.00;99.90;12.00;99109.00;;;;6312621;22;20159;-72
2023/03/14 08:02:22;;;;;;;0.60;0.60;;;9.10;99.90;12.00;99112.00;;;;6312550;22;20241;-72
2023/03/14 08:04:48;;;;;;;0.67;0.67;;;9.20;99.90;11.90;99129.00;;;;6338440;22;20140;-72
2023/03/14 08:07:17;;;;;;;0.70;0.70;;;9.20;99.90;11.50;99110.00;;;;6338553;22;20147;-72
2023/03/14 08:09:43;;;;;;;0.60;0.60;;;9.10;99.90;11.60;99112.00;;;;6338795;22;20146;-72
2023/03/14 08:12:12;;;;;;;0.60;0.60;;;9.10;99.90;11.70;99140.00;;;;6312424;22;20536;-72
2023/03/14 08:14:38;;;;;;;0.70;0.70;;;9.10;99.90;12.20;99159.00;;;;6312268;22;20160;-72
2023/03/14 08:17:09;;;;;;;0.60;0.60;;;9.20;99.90;12.10;99168.00;;;;6312412;22;20168;-72
2023/03/14 08:19:40;;;;;;;3.90;1.30;;;9.30;99.90;11.40;99180.00;;;;6340120;22;20148;-72
2023/03/14 08:22:08;;;;;;;0.77;0.77;;;9.20;99.90;11.50;99196.00;;;;6338237;22;20171;-72
2023/03/14 08:24:37;;;;;;;0.87;0.87;;;9.10;99.90;11.80;99201.00;;;;6312434;22;20156;-72
2023/03/14 08:27:06;;;;;;;0.60;0.60;;;9.10;99.90;11.50;99219.00;;;;6338620;22;20595;-72
2023/03/14 08:29:35;;;;;;;0.60;0.60;;;9.00;99.90;12.00;99231.00;;;;6312572;22;20152;-71
2023/03/14 08:32:07;;;;;;;0.60;0.60;;;9.20;99.90;12.40;99215.00;;;;6339906;22;20144;-72
2023/03/14 08:34:37;;;;;;;0.80;0.80;;;9.40;99.90;11.70;99251.00;;;;6312963;22;20213;-71
2023/03/14 08:37:03;;;;;;;0.50;0.50;;;9.40;99.90;11.70;99239.00;;;;6337469;22;20218;-72
2023/03/14 08:39:29;;;;;;;5.60;0.90;;;9.40;99.90;12.10;99222.00;;;;6340070;22;20226;-71
2023/03/14 08:41:55;;;;;;;0.53;0.53;;;9.50;99.90;12.20;99253.00;;;;6339753;22;20493;-72
2023/03/14 08:44:23;;;;;;;0.80;0.80;;;9.50;99.90;12.30;99287.00;;;;6340152;22;20584;-71
2023/03/14 08:46:54;;;;;;;0.50;0.50;;;9.60;99.90;12.40;99306.00;;;;6339316;22;20140;-71
2023/03/14 08:49:23;;;;;;;0.50;0.50;;;9.60;99.90;12.80;99316.00;;;;6338382;22;20143;-71
2023/03/14 08:51:52;;;;;;;0.60;0.60;;;9.60;99.90;12.50;99330.00;;;;6339419;22;20173;-72
2023/03/14 08:54:21;;;;;;;2.10;0.77;;;9.60;99.90;12.20;99333.00;;;;6312476;22;20157;-71
2023/03/14 08:56:47;;;;;;;0.40;0.40;;;9.50;99.90;11.80;99339.00;;;;6338197;22;20560;-71
2023/03/14 08:59:17;;;;;;;0.70;0.70;;;9.30;99.90;12.20;99340.00;;;;6337195;22;20156;-71
2023/03/14 09:01:45;;;;;;;0.50;0.50;;;9.40;99.90;12.50;99351.00;;;;6337802;22;20170;-71
2023/03/14 09:04:11;;;;;;;0.40;0.40;;;9.50;99.90;12.50;99364.00;;;;6311804;22;20167;-71
2023/03/14 09:06:43;;;;;;;0.33;0.33;;;9.60;99.90;13.10;99379.00;;;;6337946;22;20148;-71
2023/03/14 09:09:13;;;;;;;1.13;1.07;;;9.80;99.90;12.70;99388.00;;;;6312760;22;20160;-72
2023/03/14 09:11:42;;;;;;;0.30;0.30;;;9.90;99.90;11.90;99381.00;;;;6312309;22;20156;-71
2023/03/14 09:14:11;;;;;;;0.30;0.30;;;9.50;99.90;11.70;99371.00;;;;6337866;22;20147;-72
2023/03/14 09:16:40;;;;;;;0.70;0.67;;;9.30;99.90;12.10;99372.00;;;;6312092;22;20212;-71
2023/03/14 09:19:17;;;;;;;0.37;0.37;;;9.40;99.90;11.80;99394.00;;;;6339331;22;20197;-71
2023/03/14 09:21:46;;;;;;;1.70;1.17;;;9.30;99.90;11.50;99413.00;;;;6311925;22;20155;-71
2023/03/14 09:24:15;;;;;;;1.50;1.17;;;9.30;99.90;11.70;99424.00;;;;6337763;22;20587;-71
2023/03/14 09:26:47;;;;;;;0.30;0.30;;;9.20;99.90;12.20;99428.00;;;;6337909;22;20132;-71
2023/03/14 09:29:15;;;;;;;0.40;0.40;;;9.30;99.90;12.10;99444.00;;;;6338106;22;20140;-70
2023/03/14 09:31:41;;;;;;;0.80;0.80;;;9.30;99.90;11.90;99452.00;;;;6337913;22;20161;-71
2023/03/14 09:34:10;;;;;;;0.80;0.80;;;9.20;99.90;11.90;99449.00;;;;6337122;22;20603;-71
2023/03/14 09:36:39;;;;;;;0.80;0.80;;;9.00;99.90;11.80;99441.00;;;;6337624;22;20163;-72
2023/03/14 09:39:07;;;;;;;0.80;0.80;;;9.00;99.90;12.10;99465.00;;;;6311858;22;20163;-71
2023/03/14 09:41:40;;;;;;;1.03;1.03;;;9.00;99.90;11.80;99473.00;;;;6311660;22;20178;-71
2023/03/14 09:44:24;;;;;;;0.77;0.77;;;9.00;99.90;11.70;99457.00;;;;6311940;22;20231;-71
2023/03/14 09:46:54;;;;;;;0.87;0.87;;;9.00;99.90;12.10;99493.00;;;;6338076;22;20189;-71
2023/03/14 09:49:43;;;;;;;1.17;1.17;;;9.10;99.90;11.20;99480.00;;;;6311351;22;20168;-71
2023/03/14 09:52:26;;;;;;;0.80;0.80;;;9.00;99.90;11.40;99509.00;;;;6337784;22;20264;-71
2023/03/14 09:55:03;;;;;;;4.07;1.33;;;8.80;99.90;11.50;99516.00;;;;6337905;22;20198;-71
2023/03/14 09:57:32;;;;;;;0.80;0.80;;;8.80;99.90;11.70;99525.00;;;;6338100;22;20142;-71
2023/03/14 10:00:13;;;;;;;0.87;0.87;;;8.90;99.90;11.90;99508.00;;;;6311545;22;20159;-71
2023/03/14 10:02:46;;;;;;;0.90;0.90;;;8.90;99.90;11.40;99542.00;;;;6312609;22;20274;-70
2023/03/14 10:05:21;;;;;;;0.70;0.70;;;8.90;99.90;11.90;99563.00;;;;6311905;22;20151;-71
2023/03/14 10:07:56;;;;;;;0.80;0.80;;;9.00;99.90;11.60;99565.00;;;;6337647;22;20233;-71
2023/03/14 10:10:25;;;;;;;0.90;0.90;;;8.80;99.90;11.60;99582.00;;;;6337332;22;20155;-71
2023/03/14 10:13:01;;;;;;;0.70;0.70;;;8.80;99.90;11.00;99580.00;;;;6311501;22;20186;-71
2023/03/14 10:15:37;;;;;;;0.70;0.70;;;8.60;99.90;11.50;99585.00;;;;6337547;22;20159;-71
2023/03/14 10:18:11;;;;;;;0.70;0.70;;;8.70;99.90;11.50;99602.00;;;;6312025;22;20152;-71
2023/03/14 10:20:42;;;;;;;0.70;0.70;;;8.70;99.90;11.20;99613.00;;;;6337741;22;20139;-71
2023/03/14 10:33:32;;;;;;;0.50;0.50;;;7.90;99.90;10.90;99643.00;;;;5070153;28;20609;-72
2023/03/14 10:36:28;;;;;;;0.50;0.50;;;8.40;99.90;11.90;99630.00;;;;5036361;28;20253;-72
2023/03/14 10:39:42;;;;;;;0.60;0.60;;;9.10;99.90;12.30;99656.00;;;;5028598;28;20191;-72
2023/03/14 10:42:31;;;;;;;0.80;0.80;;;9.40;99.90;12.40;99654.00;;;;5074854;28;20324;-72
2023/03/14 10:45:01;;;;;;;0.80;0.80;;;9.70;99.90;12.90;99701.00;;;;5049071;28;20649;-72
2023/03/14 10:47:32;;;;;;;1.83;1.73;;;9.90;99.90;13.40;99723.00;;;;5041820;28;20629;-72
2023/03/14 10:50:29;;;;;;;1.00;1.00;;;10.20;99.90;13.80;99737.00;;;;5036254;28;20589;-72
2023/03/14 10:53:05;;;;;;;9.90;1.40;;;10.40;99.90;13.40;99751.00;;;;5046787;28;20270;-72
2023/03/14 10:55:47;;;;;;;1.17;1.17;;;10.50;99.90;13.60;99777.00;;;;5039368;28;20214;-72
2023/03/14 10:58:37;;;;;;;8.50;1.40;;;10.50;99.90;13.50;99789.00;;;;5059072;28;20276;-72
2023/03/14 11:01:29;;;;;;;0.80;0.80;;;10.40;99.90;13.00;99788.00;;;;5081818;28;20187;-72
2023/03/14 11:04:55;;;;;;;7.00;3.23;;;10.10;99.90;12.20;99790.00;;;;5041061;28;20191;-71
2023/03/14 11:07:56;;;;;;;0.90;0.90;;;9.90;99.90;12.10;99790.00;;;;5024942;28;20748;-71
2023/03/14 11:10:40;;;;;;;4.63;4.43;;;9.80;99.90;12.20;99807.00;;;;5042794;28;20299;-72
2023/03/14 11:13:46;;;;;;;0.70;0.70;;;9.60;99.90;13.00;99829.00;;;;5042953;28;20565;-72
2023/03/14 11:16:48;;;;;;;0.70;0.70;;;9.70;99.90;12.70;99830.00;;;;5044874;28;20568;-72
2023/03/14 11:19:58;;;;;;;0.70;0.70;;;9.70;99.90;12.60;99856.00;;;;5042160;28;20271;-72
2023/03/14 11:22:38;;;;;;;0.80;0.80;;;9.80;99.90;12.90;99856.00;;;;5030795;28;20320;-71
2023/03/14 11:25:18;;;;;;;0.80;0.80;;;9.70;99.90;13.50;99855.00;;;;5049268;28;20190;-72
2023/03/14 11:28:09;;;;;;;0.60;0.60;;;10.00;99.90;11.70;99866.00;;;;5081492;28;20188;-72
2023/03/14 11:30:44;;;;;;;2.40;2.23;;;9.80;99.90;10.30;99863.00;;;;5048175;28;20520;-71
2023/03/14 11:33:25;;;;;;;1.43;1.07;;;8.70;99.90;9.90;99826.00;;;;5049472;28;20218;-71
2023/03/14 11:36:04;;;;;;;0.50;0.50;;;8.20;99.90;11.30;99869.00;;;;5047731;28;20227;-71
2023/03/14 11:38:59;;;;;;;3.83;1.43;;;8.40;99.90;11.20;99871.00;;;;5048168;28;20188;-72
2023/03/14 11:41:39;;;;;;;1.53;1.47;;;8.60;99.90;11.30;99886.00;;;;5045897;28;20198;-72
2023/03/14 11:44:37;;;;;;;0.60;0.60;;;8.80;99.90;11.60;99871.00;;;;5038704;28;20274;-72
2023/03/14 11:47:09;;;;;;;1.03;1.03;;;8.90;99.90;12.10;99881.00;;;;5034529;28;20534;-72
2023/03/14 11:50:35;;;;;;;1.97;1.87;;;9.10;99.90;12.80;99902.00;;;;5031806;28;20201;-71
2023/03/14 11:53:17;;;;;;;1.27;1.27;;;9.50;99.90;12.10;99913.00;;;;5032109;28;20225;-72
2023/03/14 11:55:53;;;;;;;0.60;0.60;;;9.50;99.90;12.00;99921.00;;;;5034485;28;20230;-72
2023/03/14 11:58:35;;;;;;;0.60;0.60;;;9.40;99.90;10.70;99934.00;;;;5034673;28;20227;-71
2023/03/14 12:01:13;;;;;;;8.33;2.47;;;9.20;99.90;11.40;99949.00;;;;5016770;28;20219;-72
2023/03/14 12:03:55;;;;;;;5.10;1.90;;;9.10;99.90;11.30;99959.00;;;;5034310;28;20649;-72
2023/03/14 12:06:49;;;;;;;1.93;1.80;;;9.10;99.90;10.40;99948.00;;;;5018029;28;20585;-72
2023/03/14 12:09:20;;;;;;;1.57;1.57;;;8.70;99.90;9.70;99953.00;;;;5016366;28;20185;-72
2023/03/14 12:11:56;;;;;;;0.80;0.70;;;8.20;99.90;10.40;99948.00;;;;5017897;28;20202;-71
2023/03/14 12:14:33;;;;;;;0.50;0.50;;;8.10;99.90;10.20;99962.00;;;;5033819;28;20187;-72
2023/03/14 12:17:12;;;;;;;0.80;0.80;;;8.10;99.90;9.40;99956.00;;;;5033783;28;20218;-72
2023/03/14 12:19:46;;;;;;;3.20;1.00;;;7.70;99.90;9.80;99958.00;;;;5035309;28;20546;-72
2023/03/14 12:22:22;;;;;;;3.33;2.43;;;7.70;99.90;9.70;99964.00;;;;5051930;28;20186;-72
2023/03/14 12:25:15;;;;;;;1.27;1.07;;;7.70;99.90;9.70;99926.00;;;;5024656;28;20191;-71
2023/03/14 12:27:56;;;;;;;0.60;0.60;;;7.60;99.90;10.80;99970.00;;;;5026117;28;20209;-72
2023/03/14 12:30:37;;;;;;;2.00;1.90;;;8.00;99.90;11.20;99985.00;;;;5018403;28;20182;-72
2023/03/14 12:33:12;;;;;;;1.70;1.13;;;8.40;99.90;11.10;99953.00;;;;5033503;28;20211;-72
2023/03/14 12:35:53;;;;;;;0.80;0.80;;;8.50;99.90;10.90;99990.00;;;;5043484;28;20194;-72
2023/03/14 12:38:35;;;;;;;0.60;0.60;;;8.60;99.90;11.70;100018.00;;;;5014788;28;20210;-72
2023/03/14 12:41:29;;;;;;;0.50;0.50;;;8.80;99.90;11.50;99993.00;;;;5033489;28;20190;-72
2023/03/14 12:43:55;;;;;;;0.77;0.77;;;9.00;99.90;11.90;100032.00;;;;5046431;28;20191;-72
2023/03/14 12:46:30;;;;;;;0.67;0.67;;;9.10;99.90;12.20;100040.00;;;;5033759;28;20184;-72
2023/03/14 12:49:10;;;;;;;1.02;1.02;;;9.30;99.90;12.00;100074.00;;;;5013140;28;20431;-73
2023/03/14 12:51:48;;;;;;;5.70;1.17;;;9.40;99.90;10.60;100060.00;;;;5045008;28;20210;-72
2023/03/14 12:54:44;;;;;;;4.07;0.83;;;8.90;99.90;10.80;100073.00;;;;5004313;28;20206;-72
2023/03/14 12:57:28;;;;;;;0.30;0.30;;;8.80;99.90;11.50;100061.00;;;;5032720;28;20647;-72
2023/03/14 13:00:16;;;;;;;3.40;1.13;;;8.80;99.90;11.50;100102.00;;;;5034327;28;20202;-72
2023/03/14 13:02:51;;;;;;;3.20;1.03;;;8.90;99.90;11.50;100082.00;;;;5033058;28;20198;-72
2023/03/14 13:05:27;;;;;;;0.43;0.43;;;9.00;99.90;12.40;100079.00;;;;5023216;28;20176;-72
2023/03/14 13:07:59;;;;;;;1.20;0.97;;;9.40;99.90;12.60;100108.00;;;;5032866;28;20198;-72
2023/03/14 13:10:49;;;;;;;0.50;0.50;;;9.70;99.90;11.30;100136.00;;;;5066574;28;20285;-72
2023/03/14 13:13:27;;;;;;;1.03;1.03;;;9.30;99.90;11.40;100173.00;;;;5016531;28;20658;-72
2023/03/14 13:16:05;;;;;;;1.70;1.03;;;9.00;99.90;11.20;100199.00;;;;5016240;28;20251;-71
2023/03/14 13:18:48;;;;;;;0.40;0.40;;;9.00;99.90;11.90;100196.00;;;;5049818;28;20188;-72
2023/03/14 13:21:27;;;;;;;0.70;0.70;;;9.00;99.90;11.90;100206.00;;;;5055439;28;20520;-71
2023/03/14 13:24:02;;;;;;;4.77;1.53;;;9.20;99.90;12.60;100202.00;;;;5049532;28;20204;-72
2023/03/14 13:26:45;;;;;;;0.30;0.30;;;9.40;99.90;12.30;100215.00;;;;5033734;28;20208;-72
2023/03/14 13:29:32;;;;;;;4.90;1.30;;;9.50;99.90;12.20;100231.00;;;;5020575;28;20224;-72
2023/03/14 13:32:17;;;;;;;1.87;1.20;;;9.50;99.90;12.00;100247.00;;;;5019076;28;20248;-72
2023/03/14 13:34:43;;;;;;;0.40;0.40;;;9.50;99.90;12.80;100233.00;;;;5041478;28;20190;-72
2023/03/14 13:37:19;;;;;;;0.33;0.33;;;9.60;99.90;12.60;100236.00;;;;5032737;28;20260;-72
2023/03/14 13:39:57;;;;;;;0.30;0.30;;;9.70;99.90;12.80;100242.00;;;;5032845;28;20268;-72
2023/03/14 13:42:29;;;;;;;0.37;0.37;;;9.90;99.90;13.10;100247.00;;;;5032824;28;20237;-72
2023/03/14 13:44:57;;;;;;;0.30;0.30;;;9.80;99.90;12.60;100248.00;;;;5032100;28;20270;-72
2023/03/14 13:48:03;;;;;;;0.30;0.30;;;9.70;99.90;12.20;100269.00;;;;5032927;28;20186;-72
2023/03/14 13:50:33;;;;;;;0.47;0.47;;;9.80;99.90;12.60;100250.00;;;;5030909;28;20209;-73
2023/03/14 13:53:02;;;;;;;1.27;0.87;;;9.70;99.90;11.70;100288.00;;;;5030256;28;20224;-72
2023/03/14 13:55:53;;;;;;;1.30;0.93;;;9.40;99.90;10.90;100302.00;;;;5022066;28;20186;-72
2023/03/14 13:58:28;;;;;;;1.27;0.93;;;9.10;99.90;11.50;100307.00;;;;5027278;28;20633;-72
2023/03/14 14:01:12;;;;;;;1.47;0.87;;;9.10;99.90;12.30;100316.00;;;;5047427;28;20190;-72
2023/03/14 14:03:42;;;;;;;0.30;0.30;;;9.30;99.90;12.20;100306.00;;;;5031207;28;20225;-73
2023/03/14 14:06:44;;;;;;;0.20;0.20;;;9.30;99.90;12.20;100343.00;;;;5003091;28;20643;-72
2023/03/14 14:10:03;;;;;;;0.33;0.33;;;9.20;99.90;10.80;100306.00;;;;5031041;28;20218;-72
2023/03/14 14:12:36;;;;;;;0.70;0.70;;;8.60;99.90;11.60;100402.00;;;;5042831;28;20216;-72
2023/03/14 14:15:05;;;;;;;0.67;0.40;;;8.60;99.90;11.30;100438.00;;;;5032368;28;20188;-72
2023/03/14 14:17:46;;;;;;;0.20;0.20;;;8.60;99.90;11.70;100432.00;;;;5065310;28;20280;-73
2023/03/14 14:20:37;;;;;;;0.20;0.20;;;8.80;99.90;11.80;100442.00;;;;5028547;28;20656;-72
2023/03/14 14:23:28;;;;;;;0.20;0.20;;;8.70;99.90;12.50;100441.00;;;;5031997;28;20226;-72
2023/03/14 14:25:59;;;;;;;0.30;0.30;;;9.00;99.90;12.30;100450.00;;;;5032854;28;20318;-72
2023/03/14 14:28:45;;;;;;;3.13;1.30;;;9.20;99.90;12.60;100441.00;;;;5031868;28;20187;-73
2023/03/14 14:31:14;;;;;;;0.43;0.43;;;9.30;99.90;12.20;100453.00;;;;5032058;28;20718;-72
2023/03/14 14:34:02;;;;;;;0.20;0.20;;;9.30;99.90;12.90;100447.00;;;;5065230;28;20341;-73
2023/03/14 14:36:49;;;;;;;0.20;0.20;;;9.60;99.90;12.90;100426.00;;;;5024973;28;20673;-73
2023/03/14 14:39:26;;;;;;;0.20;0.20;;;9.60;99.90;12.40;100486.00;;;;5031341;28;20530;-73
2023/03/14 14:41:53;;;;;;;0.20;0.20;;;9.40;99.90;12.80;100474.00;;;;5031496;28;20721;-72
2023/03/14 14:44:32;;;;;;;0.20;0.20;;;9.40;99.90;13.10;100476.00;;;;5031877;28;20190;-73
2023/03/14 14:47:04;;;;;;;1.13;1.13;;;9.70;99.90;13.00;100476.00;;;;5017846;28;20193;-73
2023/03/14 14:49:36;;;;;;;0.50;0.50;;;9.60;99.90;12.80;100498.00;;;;5060074;28;20313;-73
2023/03/14 14:52:41;;;;;;;0.67;0.47;;;9.70;99.90;11.60;100515.00;;;;5012308;28;20552;-73
2023/03/14 14:55:20;;;;;;;0.27;0.27;;;9.40;99.90;12.00;100512.00;;;;5031982;28;20232;-73
2023/03/14 14:57:57;;;;;;;0.33;0.33;;;9.10;99.90;12.00;100501.00;;;;5015339;28;20183;-72
2023/03/14 15:00:32;;;;;;;0.20;0.20;;;9.10;99.90;12.90;100540.00;;;;5031500;28;20629;-73
2023/03/14 15:03:14;;;;;;;0.20;0.20;;;9.30;99.90;12.30;100507.00;;;;5031131;28;20192;-73
2023/03/14 15:05:46;;;;;;;0.33;0.33;;;9.30;99.90;12.00;100565.00;;;;5023798;28;20180;-73
2023/03/14 15:08:17;;;;;;;0.60;0.60;;;9.20;99.90;12.40;100556.00;;;;5023631;28;20195;-73
2023/03/14 15:10:49;;;;;;;0.20;0.20;;;9.10;99.90;12.30;100564.00;;;;5028621;28;20187;-73
2023/03/14 15:13:15;;;;;;;0.20;0.20;;;9.10;99.90;11.70;100583.00;;;;5032482;28;20249;-73
2023/03/14 15:15:47;;;;;;;0.20;0.20;;;9.00;99.90;11.70;100579.00;;;;5031252;28;20210;-73
2023/03/14 15:18:25;;;;;;;0.20;0.20;;;8.90;99.90;12.30;100576.00;;;;5032017;28;20206;-73
2023/03/14 15:20:56;;;;;;;0.40;0.40;;;9.00;99.90;12.20;100583.00;;;;5028923;28;20213;-73
2023/03/14 15:23:30;;;;;;;0.10;0.10;;;9.00;99.90;12.80;100563.00;;;;5035186;28;20648;-73
2023/03/14 15:26:02;;;;;;;0.27;0.27;;;9.30;99.90;11.90;100586.00;;;;5035052;28;20642;-72
2023/03/14 15:28:35;;;;;;;0.13;0.13;;;9.00;99.90;12.50;100574.00;;;;5035523;28;20190;-73
2023/03/14 15:31:01;;;;;;;0.20;0.20;;;9.10;99.90;12.40;100621.00;;;;5028051;28;20200;-73
2023/03/14 15:33:32;;;;;;;0.20;0.20;;;9.10;99.90;12.20;100623.00;;;;5035061;28;20215;-73
2023/03/14 15:36:06;;;;;;;0.20;0.20;;;9.00;99.90;11.70;100636.00;;;;5033348;28;20223;-73
2023/03/14 15:38:37;;;;;;;0.20;0.20;;;8.80;99.90;11.80;100636.00;;;;5035054;28;20188;-73
2023/03/14 15:41:09;;;;;;;0.20;0.20;;;8.80;99.90;11.10;100650.00;;;;5034441;28;20600;-73
2023/03/14 15:43:41;;;;;;;0.20;0.20;;;8.60;99.90;11.80;100612.00;;;;5015721;28;20185;-73
2023/03/14 15:46:17;;;;;;;0.47;0.47;;;8.70;99.90;12.40;100645.00;;;;5034759;28;20188;-73
2023/03/14 15:48:50;;;;;;;0.10;0.10;;;8.90;99.90;11.80;100649.00;;;;5034935;28;20641;-73
2023/03/14 15:51:21;;;;;;;0.20;0.20;;;8.90;99.90;12.00;100655.00;;;;5045007;28;20562;-74
2023/03/14 15:53:53;;;;;;;0.10;0.10;;;8.90;99.90;12.40;100649.00;;;;5018190;28;20189;-73
2023/03/14 15:56:26;;;;;;;0.17;0.17;;;8.90;99.90;12.50;100658.00;;;;5021689;28;20203;-73
2023/03/14 15:58:52;;;;;;;0.10;0.10;;;9.00;99.90;12.40;100665.00;;;;5031630;28;20190;-73
2023/03/14 16:01:24;;;;;;;0.20;0.20;;;9.20;99.90;12.90;100663.00;;;;5017813;28;20234;-73
2023/03/14 16:03:56;;;;;;;0.77;0.50;;;9.30;99.90;11.90;100662.00;;;;5063064;28;20574;-73
2023/03/14 16:06:27;;;;;;;0.47;0.20;;;9.10;99.90;11.30;100673.00;;;;5019753;28;20188;-73
2023/03/14 16:08:53;;;;;;;0.10;0.10;;;8.90;99.90;11.90;100682.00;;;;5047029;28;20180;-73
2023/03/14 16:11:24;;;;;;;0.10;0.10;;;8.80;99.90;12.40;100646.00;;;;5033954;28;20191;-73
2023/03/14 16:13:59;;;;;;;0.40;0.40;;;9.00;99.90;12.50;100689.00;;;;5034068;28;20202;-73
2023/03/14 16:16:30;;;;;;;0.57;0.57;;;9.00;99.90;12.20;100700.00;;;;5018014;28;20187;-73
2023/03/14 16:18:56;;;;;;;0.60;0.60;;;9.00;99.90;11.80;100672.00;;;;5023762;28;20190;-73
2023/03/14 16:21:30;;;;;;;0.37;0.37;;;8.80;99.90;12.60;100700.00;;;;5019442;28;20186;-73
2023/03/14 16:24:05;;;;;;;0.17;0.17;;;9.10;99.90;12.70;100709.00;;;;5029373;28;20249;-73
2023/03/14 16:26:37;;;;;;;0.23;0.23;;;9.20;99.90;12.70;100716.00;;;;5050829;28;20663;-73
2023/03/14 16:29:03;;;;;;;0.67;0.57;;;9.40;99.90;12.90;100729.00;;;;5034936;28;20570;-73
2023/03/14 16:31:29;;;;;;;0.10;0.10;;;9.40;99.90;12.60;100723.00;;;;5033706;28;20286;-73
2023/03/14 16:34:02;;;;;;;0.47;0.43;;;9.20;99.90;13.10;100728.00;;;;5016945;28;20242;-73
2023/03/14 16:36:34;;;;;;;0.10;0.10;;;9.50;99.90;12.80;100729.00;;;;5033366;28;20653;-73
2023/03/14 16:39:05;;;;;;;0.10;0.10;;;9.40;99.90;12.90;100711.00;;;;5025148;28;20191;-73
2023/03/14 16:41:35;;;;;;;0.20;0.20;;;9.50;99.90;12.60;100743.00;;;;5040335;28;20218;-73
2023/03/14 16:44:07;;;;;;;0.30;0.30;;;9.40;99.90;12.70;100711.00;;;;5046139;28;20191;-73
2023/03/14 16:46:36;;;;;;;0.20;0.20;;;9.30;99.90;12.40;100743.00;;;;5007433;28;20186;-73
2023/03/14 16:49:06;;;;;;;4.90;1.50;;;9.00;99.90;12.70;100753.00;;;;5022678;28;20598;-73
2023/03/14 16:51:32;;;;;;;0.10;0.10;;;9.20;99.90;12.60;100758.00;;;;5024179;28;20203;-73
2023/03/14 16:53:58;;;;;;;0.20;0.20;;;9.20;99.90;12.60;100772.00;;;;5033176;28;20201;-73
2023/03/14 16:56:24;;;;;;;0.10;0.10;;;9.10;99.90;12.90;100733.00;;;;5033533;28;20636;-73
2023/03/14 16:58:50;;;;;;;0.20;0.20;;;9.20;99.90;12.80;100780.00;;;;5016913;28;20180;-73
2023/03/14 17:01:17;;;;;;;0.10;0.10;;;9.20;99.90;13.00;100752.00;;;;5033052;28;20199;-73
2023/03/14 17:03:50;;;;;;;3.17;1.70;;;9.20;99.90;12.90;100786.00;;;;5033276;28;20206;-73
2023/03/14 17:06:27;;;;;;;0.20;0.20;;;9.30;99.90;12.80;100790.00;;;;5033394;28;20195;-73
2023/03/14 17:08:57;;;;;;;0.30;0.30;;;9.30;99.90;12.80;100797.00;;;;5026649;28;20188;-73
2023/03/14 17:11:24;;;;;;;0.20;0.20;;;9.30;99.90;12.90;100807.00;;;;5033503;28;20188;-73
2023/03/14 17:13:53;;;;;;;0.10;0.10;;;9.20;99.90;12.80;100810.00;;;;5032842;28;20183;-73
2023/03/14 17:16:19;;;;;;;6.43;0.97;;;9.30;99.90;12.80;100806.00;;;;5031125;28;20772;-73
2023/03/14 17:18:47;;;;;;;0.10;0.10;;;9.20;99.90;12.70;100825.00;;;;5032940;28;20261;-73
2023/03/14 17:21:13;;;;;;;0.10;0.10;;;9.20;99.90;12.10;100796.00;;;;5016909;28;20180;-73
2023/03/14 17:23:42;;;;;;;0.10;0.10;;;9.00;99.90;12.00;100835.00;;;;5025612;28;20191;-73
2023/03/14 17:26:12;;;;;;;0.20;0.20;;;8.70;99.90;12.60;100852.00;;;;5033120;28;20318;-73
2023/03/14 17:28:38;;;;;;;0.10;0.10;;;8.90;99.90;12.60;100857.00;;;;5032734;28;20252;-73
2023/03/14 17:31:10;;;;;;;0.10;0.10;;;8.90;99.90;13.00;100848.00;;;;5015884;28;20180;-73
2023/03/14 17:33:36;;;;;;;0.10;0.10;;;9.10;99.90;13.00;100850.00;;;;5046733;28;20210;-73
2023/03/14 17:36:03;;;;;;;0.10;0.10;;;9.10;99.90;13.20;100867.00;;;;5024202;28;20648;-73
2023/03/14 17:38:29;;;;;;;0.10;0.10;;;9.30;99.90;13.10;100875.00;;;;5028886;28;20224;-73
2023/03/14 17:40:55;;;;;;;0.10;0.10;;;9.30;99.90;12.50;100865.00;;;;5032293;28;20536;-73
2023/03/14 17:43:21;;;;;;;0.10;0.10;;;9.00;99.90;12.80;100879.00;;;;5032626;28;20194;-73
2023/03/14 17:46:00;;;;;;;0.20;0.20;;;8.90;99.90;12.90;100888.00;;;;5033913;28;20237;-74
2023/03/14 17:48:27;;;;;;;0.20;0.20;;;8.90;99.90;13.00;100856.00;;;;5055206;28;20510;-73
2023/03/14 17:50:53;;;;;;;0.10;0.10;;;8.90;99.90;12.80;100857.00;;;;5032530;28;20184;-73
2023/03/14 17:53:19;;;;;;;0.20;0.20;;;8.80;99.90;12.70;100861.00;;;;5032180;28;20213;-74
2023/03/14 17:55:48;;;;;;;0.20;0.20;;;8.80;99.90;12.80;100904.00;;;;5015844;28;20183;-73
2023/03/14 17:58:14;;;;;;;0.20;0.20;;;8.80;99.90;13.00;100878.00;;;;5032418;28;20265;-74
2023/03/14 18:00:41;;;;;;;0.20;0.20;;;8.80;99.90;12.60;100927.00;;;;5032387;28;20183;-73
2023/03/14 18:03:07;;;;;;;0.43;0.43;;;8.80;99.90;12.50;100933.00;;;;5031761;28;20218;-73
2023/03/14 18:05:33;;;;;;;0.10;0.10;;;8.70;99.90;13.10;100944.00;;;;5015017;28;20269;-73
2023/03/14 18:07:59;;;;;;;1.97;0.70;;;8.90;99.90;11.90;100971.00;;;;5015564;28;20194;-73
2023/03/14 18:10:25;;;;;;;2.07;0.77;;;8.70;99.90;11.50;100953.00;;;;5057738;28;20191;-73
2023/03/14 18:12:51;;;;;;;0.40;0.40;;;8.60;99.90;11.30;101019.00;;;;5021218;28;20262;-73
2023/03/14 18:15:17;;;;;;;0.20;0.20;;;8.20;99.90;11.20;100992.00;;;;5048083;28;20207;-73
2023/03/14 18:17:43;;;;;;;0.20;0.20;;;7.90;99.90;10.80;101007.00;;;;5032542;28;20215;-72
2023/03/14 18:20:13;;;;;;;0.20;0.20;;;7.60;99.90;10.80;100988.00;;;;5031632;28;20195;-72
2023/03/14 18:22:43;;;;;;;0.20;0.20;;;7.40;99.90;10.80;100952.00;;;;5031655;28;20249;-71
2023/03/14 18:25:12;;;;;;;0.20;0.20;;;7.20;99.90;10.80;100959.00;;;;5026558;28;20256;-70
2023/03/14 18:27:41;;;;;;;0.20;0.20;;;7.10;99.90;10.80;100929.00;;;;5032110;28;20237;-71
2023/03/14 18:30:08;;;;;;;0.20;0.20;;;7.10;99.90;10.70;100913.00;;;;5012368;28;20193;-71
2023/03/14 18:32:34;;;;;;;0.20;0.20;;;7.10;99.90;10.10;100930.00;;;;5055197;28;20258;-71
2023/03/14 18:35:00;;;;;;;0.20;0.20;;;6.90;99.90;9.30;100883.00;;;;5031667;28;20682;-71
2023/03/14 18:37:30;;;;;;;0.30;0.30;;;6.60;99.90;9.50;100875.00;;;;5031883;28;20551;-71
2023/03/14 18:39:59;;;;;;;0.20;0.20;;;6.30;99.90;8.70;100871.00;;;;5017338;28;20194;-71
2023/03/14 18:42:30;;;;;;;0.20;0.20;;;6.20;99.90;9.50;100879.00;;;;5047986;28;20194;-71
2023/03/14 18:44:56;;;;;;;0.30;0.30;;;6.20;99.90;10.60;100890.00;;;;5027081;28;20734;-71
2023/03/14 18:47:24;;;;;;;0.30;0.30;;;6.70;99.90;9.90;100898.00;;;;5023829;28;20267;-71
2023/03/14 18:49:53;;;;;;;0.30;0.30;;;6.70;99.90;9.00;100847.00;;;;5029810;28;20635;-72
2023/03/14 18:52:19;;;;;;;0.30;0.30;;;6.60;99.90;9.70;100883.00;;;;5018168;28;20295;-72
2023/03/14 18:54:45;;;;;;;0.30;0.30;;;6.40;99.90;9.30;100893.00;;;;5027948;28;20192;-71
2023/03/14 18:57:14;;;;;;;0.30;0.30;;;6.40;99.90;8.70;100871.00;;;;5035765;28;20195;-71
2023/03/14 18:59:40;;;;;;;0.30;0.30;;;6.10;99.90;8.70;100873.00;;;;5018705;28;20791;-72
2023/03/14 19:02:34;;;;;;;0.30;0.30;;;5.90;99.90;8.90;100881.00;;;;5036590;28;20758;-72
2023/03/14 19:05:01;;;;;;;0.30;0.30;;;5.90;99.90;7.90;100818.00;;;;5034843;28;20247;-71
2023/03/14 19:07:27;;;;;;;0.30;0.30;;;5.60;99.90;7.70;100875.00;;;;5020881;28;20243;-71
2023/03/14 19:09:59;;;;;;;0.30;0.30;;;5.40;99.90;8.40;100837.00;;;;5045703;28;20271;-71
2023/03/14 19:12:28;;;;;;;0.40;0.40;;;5.50;99.90;8.40;100890.00;;;;5010502;28;20213;-71
2023/03/14 19:14:54;;;;;;;0.30;0.30;;;5.50;99.90;8.40;100881.00;;;;5022222;28;20658;-72